Time;durP1;ratioP1;P1;durP2;ratioP2;P2;SDS_P1;SDS_P2;PMS_P1;PMS_P2;Temp;Humidity;BMP_temperature;BMP_pressure;BME280_temperature;BME280_humidity;BME280_pressure;Samples;Min_cycle;Max_cycle;Signal;HPM_P1;HPM_P2
2021/07/06 00:01:08;;;;;;;1999.90;999.90;;;;;;;15.85;50.57;100535.16;5008818;27;98683;-67
2021/07/06 00:03:36;;;;;;;1999.90;999.90;;;;;;;15.84;50.41;100545.91;5004079;27;97579;-68
2021/07/06 00:06:05;;;;;;;1999.90;999.90;;;;;;;15.83;50.72;100546.81;5005798;27;97448;-69
2021/07/06 00:08:32;;;;;;;1999.90;999.90;;;;;;;15.81;50.77;100541.44;5012504;27;97652;-69
2021/07/06 00:11:00;;;;;;;1999.90;999.90;;;;;;;15.80;50.61;100541.44;5004006;27;99183;-69
2021/07/06 00:13:28;;;;;;;1999.90;999.90;;;;;;;15.78;50.74;100533.41;5007478;27;97270;-69
2021/07/06 00:15:56;;;;;;;1999.90;999.90;;;;;;;15.77;50.58;100533.41;5003110;27;98151;-69
2021/07/06 00:18:23;;;;;;;1999.90;999.90;;;;;;;15.75;50.75;100525.38;5003040;27;97633;-69
2021/07/06 00:20:51;;;;;;;1999.90;999.90;;;;;;;15.73;50.70;100527.19;4989362;27;99316;-68
2021/07/06 00:23:20;;;;;;;1999.90;999.90;;;;;;;15.70;50.84;100535.22;4998994;27;96868;-69
2021/07/06 00:25:48;;;;;;;1999.90;999.90;;;;;;;15.68;50.62;100530.78;4998017;27;97294;-69
2021/07/06 00:28:16;;;;;;;1999.90;999.90;;;;;;;15.67;50.42;100531.66;5014356;27;99157;-69
2021/07/06 00:30:43;;;;;;;1999.90;999.90;;;;;;;15.63;50.54;100528.09;5005863;27;100226;-69
2021/07/06 00:33:11;;;;;;;1999.90;999.90;;;;;;;15.63;50.60;100529.91;5003588;27;97198;-69
2021/07/06 00:35:40;;;;;;;1999.90;999.90;;;;;;;15.63;50.92;100529.91;5007402;27;97498;-69
2021/07/06 00:38:07;;;;;;;1999.90;999.90;;;;;;;15.61;51.08;100535.25;5010547;27;97334;-69
2021/07/06 00:40:37;;;;;;;1999.90;999.90;;;;;;;15.60;50.70;100537.94;5008463;27;97909;-69
2021/07/06 00:43:04;;;;;;;1999.90;999.90;;;;;;;15.59;50.71;100538.84;5015200;27;97876;-69
2021/07/06 00:45:32;;;;;;;1999.90;999.90;;;;;;;15.59;51.11;100536.16;5007589;27;97876;-69
2021/07/06 00:48:01;;;;;;;1999.90;999.90;;;;;;;15.59;50.88;100530.81;5001754;28;99000;-69
2021/07/06 00:50:30;;;;;;;1999.90;999.90;;;;;;;15.58;51.09;100529.91;5012646;27;98724;-68
2021/07/06 00:52:58;;;;;;;1999.90;999.90;;;;;;;15.60;50.95;100532.56;5005911;27;97909;-69
2021/07/06 00:55:26;;;;;;;1999.90;999.90;;;;;;;15.60;50.75;100532.56;4992527;28;97084;-69
2021/07/06 00:57:55;;;;;;;1999.90;999.90;;;;;;;15.59;50.98;100533.50;5020880;27;97518;-68
2021/07/06 01:00:25;;;;;;;1999.90;999.90;;;;;;;15.59;50.57;100538.84;5007443;27;97648;-69
2021/07/06 01:02:54;;;;;;;1999.90;999.90;;;;;;;15.58;50.83;100534.38;5002651;27;97512;-68
2021/07/06 01:05:23;;;;;;;1999.90;999.90;;;;;;;15.58;50.99;100535.28;5006003;27;98100;-68
2021/07/06 01:07:51;;;;;;;1999.90;999.90;;;;;;;15.54;50.85;100541.53;5017575;27;98742;-68
2021/07/06 01:10:19;;;;;;;1999.90;999.90;;;;;;;15.50;50.89;100536.19;5006557;27;99385;-68
2021/07/06 01:12:47;;;;;;;1999.90;999.90;;;;;;;15.48;51.17;100533.53;5008442;27;97360;-67
2021/07/06 01:15:19;;;;;;;1999.90;999.90;;;;;;;15.46;50.89;100535.31;5007124;27;98198;-69
2021/07/06 01:18:03;;;;;;;1999.90;999.90;;;;;;;15.44;50.90;100533.53;5007325;27;99219;-67
2021/07/06 01:20:32;;;;;;;1999.90;999.90;;;;;;;15.46;51.09;100529.06;5004792;27;100540;-68
2021/07/06 01:23:02;;;;;;;1999.90;999.90;;;;;;;15.47;50.76;100526.38;5010719;27;97173;-68
2021/07/06 01:25:30;;;;;;;1999.90;999.90;;;;;;;15.44;50.82;100525.47;5009195;27;97500;-69
2021/07/06 01:28:00;;;;;;;1999.90;999.90;;;;;;;15.45;51.31;100525.47;5004311;27;100021;-69
2021/07/06 01:30:29;;;;;;;1999.90;999.90;;;;;;;15.46;50.85;100529.97;5008665;27;98114;-69
2021/07/06 01:32:57;;;;;;;1999.90;999.90;;;;;;;15.49;51.20;100526.34;5016366;27;97102;-68
2021/07/06 01:35:25;;;;;;;1999.90;999.90;;;;;;;15.48;51.02;100527.25;5006378;27;97790;-68
2021/07/06 01:37:57;;;;;;;1999.90;999.90;;;;;;;15.50;51.27;100537.06;5009281;27;98849;-68
2021/07/06 01:40:27;;;;;;;1999.90;999.90;;;;;;;15.50;51.35;100522.78;5004341;27;97697;-69
2021/07/06 01:42:56;;;;;;;1999.90;999.90;;;;;;;15.50;51.03;100517.44;5003173;27;97229;-68
2021/07/06 01:45:25;;;;;;;1999.90;999.90;;;;;;;15.50;51.17;100509.38;5006688;27;97093;-70
2021/07/06 01:47:55;;;;;;;1999.90;999.90;;;;;;;15.49;51.37;100508.47;5005247;27;97651;-68
2021/07/06 01:50:24;;;;;;;1999.90;999.90;;;;;;;15.50;51.07;100507.56;5007129;27;99138;-68
2021/07/06 01:52:54;;;;;;;1999.90;999.90;;;;;;;15.50;50.89;100509.38;5006094;27;97277;-69
2021/07/06 01:55:26;;;;;;;1999.90;999.90;;;;;;;15.50;50.93;100504.88;5016319;27;97220;-68
2021/07/06 01:57:55;;;;;;;1999.90;999.90;;;;;;;15.49;51.24;100497.75;5005571;27;100119;-69
2021/07/06 02:00:27;;;;;;;1999.90;999.90;;;;;;;15.51;51.19;100498.66;5008368;27;98115;-69
2021/07/06 02:02:55;;;;;;;1999.90;999.90;;;;;;;15.50;51.37;100501.34;5001271;27;98152;-69
2021/07/06 02:05:30;;;;;;;1999.90;999.90;;;;;;;15.50;50.94;100487.94;5001390;27;97682;-69
2021/07/06 02:07:58;;;;;;;1999.90;999.90;;;;;;;15.52;51.07;100491.50;5009932;27;99329;-68
2021/07/06 02:10:28;;;;;;;1999.90;999.90;;;;;;;15.53;51.06;100494.16;5002717;27;97245;-68
2021/07/06 02:12:57;;;;;;;1999.90;999.90;;;;;;;15.57;50.94;100490.59;4985407;28;96881;-69
2021/07/06 02:15:26;;;;;;;1999.90;999.90;;;;;;;15.59;51.16;100488.78;5002943;27;96770;-68
2021/07/06 02:17:54;;;;;;;1999.90;999.90;;;;;;;15.53;51.07;100488.81;5019131;27;99299;-69
2021/07/06 02:20:23;;;;;;;1999.90;999.90;;;;;;;15.52;51.17;100481.63;5002861;27;97837;-68
2021/07/06 02:22:51;;;;;;;1999.90;999.90;;;;;;;15.49;51.35;100484.34;5003155;27;97309;-69
2021/07/06 02:25:21;;;;;;;1999.90;999.90;;;;;;;15.48;51.12;100487.03;4999612;28;96841;-68
2021/07/06 02:27:51;;;;;;;1999.90;999.90;;;;;;;15.47;51.33;100479.88;5006577;27;98814;-69
2021/07/06 02:30:20;;;;;;;1999.90;999.90;;;;;;;15.48;51.03;100479.00;5006083;27;100467;-68
2021/07/06 02:32:49;;;;;;;1999.90;999.90;;;;;;;15.46;51.07;100476.31;4995471;27;97545;-68
2021/07/06 02:35:18;;;;;;;1999.90;999.90;;;;;;;15.47;51.11;100471.81;4996133;27;97916;-69
2021/07/06 02:37:46;;;;;;;1999.90;999.90;;;;;;;15.44;51.10;100467.38;5006509;27;97719;-69
2021/07/06 02:40:16;;;;;;;1999.90;999.90;;;;;;;15.44;51.60;100472.75;5002850;27;99312;-69
2021/07/06 02:42:44;;;;;;;1999.90;999.90;;;;;;;15.43;51.61;100476.31;5000824;27;97424;-69
2021/07/06 02:45:15;;;;;;;1999.90;999.90;;;;;;;15.42;51.17;100468.28;5005548;27;96903;-68
2021/07/06 02:47:42;;;;;;;1999.90;999.90;;;;;;;15.41;51.70;100472.75;5002585;27;99087;-69
2021/07/06 02:50:12;;;;;;;1999.90;999.90;;;;;;;15.40;51.79;100475.44;5001690;27;99228;-70
2021/07/06 02:52:40;;;;;;;1999.90;999.90;;;;;;;15.39;51.30;100469.22;5033376;27;98015;-68
2021/07/06 02:55:09;;;;;;;1999.90;999.90;;;;;;;15.38;51.69;100466.50;5001710;27;97021;-69
2021/07/06 02:57:40;;;;;;;1999.90;999.90;;;;;;;15.39;51.79;100468.31;5007172;27;97727;-69
2021/07/06 03:00:16;;;;;;;1999.90;999.90;;;;;;;15.38;51.51;100463.81;5006484;27;99582;-68
2021/07/06 03:02:46;;;;;;;1999.90;999.90;;;;;;;15.39;51.66;100454.91;5007858;27;97117;-69
2021/07/06 03:05:16;;;;;;;1999.90;999.90;;;;;;;15.38;51.46;100456.69;5018188;27;97974;-69
2021/07/06 03:07:44;;;;;;;1999.90;999.90;;;;;;;15.40;51.57;100448.63;5006169;27;99692;-69
2021/07/06 03:10:14;;;;;;;1999.90;999.90;;;;;;;15.39;51.86;100452.22;5002715;27;98251;-67
2021/07/06 03:12:43;;;;;;;1999.90;999.90;;;;;;;15.41;51.80;100445.94;5003013;27;97245;-69
2021/07/06 03:15:14;;;;;;;1999.90;999.90;;;;;;;15.41;51.70;100439.69;4989666;28;96934;-68
2021/07/06 03:17:43;;;;;;;1999.90;999.90;;;;;;;15.40;51.48;100444.16;5001789;27;97681;-69
2021/07/06 03:20:14;;;;;;;1999.90;999.90;;;;;;;15.38;51.78;100429.88;5007373;27;100093;-69
2021/07/06 03:22:42;;;;;;;1999.90;999.90;;;;;;;15.40;51.61;100433.44;5005676;27;97019;-67
2021/07/06 03:25:12;;;;;;;1999.90;999.90;;;;;;;15.41;51.45;100432.53;5014591;27;97967;-68
2021/07/06 03:27:40;;;;;;;1999.90;999.90;;;;;;;15.40;51.76;100433.44;5004874;27;99617;-68
2021/07/06 03:30:12;;;;;;;1999.90;999.90;;;;;;;15.39;51.62;100438.81;5013160;27;97542;-69
2021/07/06 03:32:41;;;;;;;1999.90;999.90;;;;;;;15.35;51.71;100437.94;5015495;27;97134;-69
2021/07/06 03:35:10;;;;;;;1999.90;999.90;;;;;;;15.34;51.76;100438.81;5009629;27;98729;-68
2021/07/06 03:37:38;;;;;;;1999.90;999.90;;;;;;;15.31;51.60;100437.94;5003059;27;98002;-67
2021/07/06 03:40:08;;;;;;;1999.90;999.90;;;;;;;15.27;52.08;100441.47;5002551;27;98654;-68
2021/07/06 03:42:36;;;;;;;1999.90;999.90;;;;;;;15.22;51.91;100452.25;5007600;27;98366;-70
2021/07/06 03:45:04;;;;;;;1999.90;999.90;;;;;;;15.20;52.22;100439.72;5001698;27;97487;-70
2021/07/06 03:47:32;;;;;;;1999.90;999.90;;;;;;;15.21;52.14;100438.84;4999979;27;100415;-69
2021/07/06 03:50:02;;;;;;;1999.90;999.90;;;;;;;15.19;52.25;100435.28;5002634;27;98053;-70
2021/07/06 03:52:29;;;;;;;1999.90;999.90;;;;;;;15.17;52.01;100438.84;5013178;27;97189;-70
2021/07/06 03:54:57;;;;;;;1999.90;999.90;;;;;;;15.19;51.96;100441.53;5001284;27;97445;-69
2021/07/06 03:57:29;;;;;;;1999.90;999.90;;;;;;;15.17;52.20;100446.00;5004038;27;99900;-68
2021/07/06 03:59:58;;;;;;;1999.90;999.90;;;;;;;15.19;52.31;100444.22;5005872;27;98175;-69
2021/07/06 04:02:25;;;;;;;1999.90;999.90;;;;;;;15.21;52.46;100446.88;5006992;27;98211;-69
2021/07/06 04:04:54;;;;;;;1999.90;999.90;;;;;;;15.22;52.18;100452.25;5006763;27;97805;-69
2021/07/06 04:07:23;;;;;;;1999.90;999.90;;;;;;;15.22;52.04;100449.56;5004390;27;97617;-69
2021/07/06 04:09:50;;;;;;;1999.90;999.90;;;;;;;15.22;52.29;100445.97;5006779;27;97269;-69
2021/07/06 04:12:18;;;;;;;1999.90;999.90;;;;;;;15.21;52.16;100442.38;5004911;27;97364;-69
2021/07/06 04:14:46;;;;;;;1999.90;999.90;;;;;;;15.22;52.30;100441.50;5012509;27;97985;-68
2021/07/06 04:17:14;;;;;;;1999.90;999.90;;;;;;;15.23;51.85;100445.97;4997222;27;100970;-69
2021/07/06 04:19:41;;;;;;;1999.90;999.90;;;;;;;15.22;52.16;100446.88;5007233;27;98424;-68
2021/07/06 04:22:09;;;;;;;1999.90;999.90;;;;;;;15.24;52.30;100455.81;5006263;27;97588;-68
2021/07/06 04:24:38;;;;;;;1999.90;999.90;;;;;;;15.26;51.94;100447.75;5003596;27;97926;-69
2021/07/06 04:27:07;;;;;;;1999.90;999.90;;;;;;;15.24;52.27;100441.50;5005141;27;100092;-68
2021/07/06 04:29:34;;;;;;;1999.90;999.90;;;;;;;15.26;52.41;100448.66;5009885;27;97790;-69
2021/07/06 04:32:02;;;;;;;1999.90;999.90;;;;;;;15.28;51.86;100445.97;5009497;27;97203;-69
2021/07/06 04:34:30;;;;;;;1999.90;999.90;;;;;;;15.28;52.24;100436.16;4995629;27;96770;-69
2021/07/06 04:36:58;;;;;;;1999.90;999.90;;;;;;;15.31;52.08;100444.19;4993770;27;100545;-69
2021/07/06 04:39:25;;;;;;;1999.90;999.90;;;;;;;15.30;52.13;100444.22;5007898;27;99237;-69
2021/07/06 04:41:54;;;;;;;1999.90;999.90;;;;;;;15.28;52.28;100446.88;5011581;27;96880;-69
2021/07/06 04:44:22;;;;;;;1999.90;999.90;;;;;;;15.26;52.08;100445.06;5006043;27;97427;-69
2021/07/06 04:46:50;;;;;;;1999.90;999.90;;;;;;;15.24;52.46;100447.75;5007285;27;99528;-70
2021/07/06 04:49:18;;;;;;;1999.90;999.90;;;;;;;15.25;52.08;100443.31;4998155;27;98557;-70
2021/07/06 04:51:46;;;;;;;1999.90;999.90;;;;;;;15.29;52.20;100447.72;5006991;27;96872;-69
2021/07/06 04:54:14;;;;;;;1999.90;999.90;;;;;;;15.30;52.05;100449.56;5008070;27;97318;-70
2021/07/06 04:56:41;;;;;;;1999.90;999.90;;;;;;;15.32;52.20;100453.13;5013781;27;100429;-68
2021/07/06 04:59:11;;;;;;;1999.90;999.90;;;;;;;15.32;52.38;100440.59;5004222;27;99075;-70
2021/07/06 05:01:38;;;;;;;1999.90;999.90;;;;;;;15.32;52.15;100445.97;5006818;27;97952;-70
2021/07/06 05:04:06;;;;;;;1999.90;999.90;;;;;;;15.34;52.41;100448.66;5005540;27;98396;-69
2021/07/06 05:06:34;;;;;;;1999.90;999.90;;;;;;;15.34;52.13;100449.53;5004031;27;97742;-70
2021/07/06 05:09:02;;;;;;;1999.90;999.90;;;;;;;15.36;52.27;100450.44;5005229;27;97878;-68
2021/07/06 05:11:29;;;;;;;1999.90;999.90;;;;;;;15.37;51.87;100444.19;4997965;27;97652;-70
2021/07/06 05:13:57;;;;;;;1999.90;999.90;;;;;;;15.38;52.13;100451.31;5004527;27;97226;-70
2021/07/06 05:16:27;;;;;;;1999.90;999.90;;;;;;;15.41;52.18;100451.28;5003916;27;98424;-70
2021/07/06 05:18:54;;;;;;;1999.90;999.90;;;;;;;15.41;52.23;100456.66;5003537;27;98016;-70
2021/07/06 05:21:22;;;;;;;1999.90;999.90;;;;;;;15.41;52.17;100455.78;5011661;27;98062;-70
2021/07/06 05:24:07;;;;;;;1999.90;999.90;;;;;;;15.42;52.11;100431.66;5017203;27;97569;-70
2021/07/06 05:26:35;;;;;;;1999.90;999.90;;;;;;;15.43;52.16;100436.09;5012401;27;97789;-69
2021/07/06 05:29:04;;;;;;;1999.90;999.90;;;;;;;15.43;52.30;100422.69;5003399;27;98897;-70
2021/07/06 05:31:33;;;;;;;1999.90;999.90;;;;;;;15.43;52.17;100421.81;5016591;27;97699;-70
2021/07/06 05:34:01;;;;;;;1999.90;999.90;;;;;;;15.45;52.25;100420.88;5007191;27;96921;-70
2021/07/06 05:36:29;;;;;;;1999.90;999.90;;;;;;;15.46;52.09;100422.69;5001909;27;97783;-70
2021/07/06 05:38:57;;;;;;;1999.90;999.90;;;;;;;15.49;52.09;100433.41;5009491;27;98859;-68
2021/07/06 05:41:25;;;;;;;1999.90;999.90;;;;;;;15.55;51.64;100430.69;5003595;27;97478;-68
2021/07/06 05:43:53;;;;;;;1999.90;999.90;;;;;;;15.57;51.87;100433.38;4999438;28;96709;-69
2021/07/06 05:46:21;;;;;;;1999.90;999.90;;;;;;;15.61;51.85;100436.00;5005394;27;97800;-69
2021/07/06 05:48:50;;;;;;;1999.90;999.90;;;;;;;15.67;52.01;100437.75;5005060;27;100844;-69
2021/07/06 05:51:18;;;;;;;1999.90;999.90;;;;;;;15.72;51.95;100436.84;5005914;27;96879;-69
2021/07/06 05:53:48;;;;;;;1999.90;999.90;;;;;;;15.78;51.92;100434.13;5012506;27;98102;-68
2021/07/06 05:56:16;;;;;;;1999.90;999.90;;;;;;;15.86;51.57;100424.25;5012173;27;97616;-69
2021/07/06 05:58:44;;;;;;;1999.90;999.90;;;;;;;15.90;51.48;100420.63;5010469;27;101121;-69
2021/07/06 06:01:12;;;;;;;1999.90;999.90;;;;;;;15.91;51.08;100411.69;5020181;27;97260;-69
2021/07/06 06:03:40;;;;;;;1999.90;999.90;;;;;;;15.95;51.31;100410.78;5008008;27;98125;-69
2021/07/06 06:06:10;;;;;;;1999.90;999.90;;;;;;;15.97;50.95;100417.03;5006380;27;98004;-68
2021/07/06 06:08:38;;;;;;;1999.90;999.90;;;;;;;15.99;51.44;100417.91;4990526;28;101237;-69
2021/07/06 06:11:07;;;;;;;1999.90;999.90;;;;;;;16.01;51.05;100421.50;5007667;27;97448;-68
2021/07/06 06:13:35;;;;;;;1999.90;999.90;;;;;;;16.01;50.98;100424.19;4992026;28;97400;-67
2021/07/06 06:16:04;;;;;;;1999.90;999.90;;;;;;;16.03;50.96;100417.00;5005436;27;98564;-68
2021/07/06 06:18:31;;;;;;;1999.90;999.90;;;;;;;16.07;51.13;100418.78;5013591;27;97686;-68
2021/07/06 06:20:59;;;;;;;1999.90;999.90;;;;;;;16.08;50.94;100411.63;5014099;27;97147;-68
2021/07/06 06:23:28;;;;;;;1999.90;999.90;;;;;;;16.12;50.96;100415.16;5008102;27;97362;-69
2021/07/06 06:25:56;;;;;;;1999.90;999.90;;;;;;;16.14;51.16;100408.91;5003871;27;99282;-68
2021/07/06 06:28:24;;;;;;;1999.90;999.90;;;;;;;16.24;50.98;100415.06;5007434;27;98480;-68
2021/07/06 06:30:54;;;;;;;1999.90;999.90;;;;;;;16.28;50.93;100416.84;5004477;27;97822;-68
2021/07/06 06:33:21;;;;;;;1999.90;999.90;;;;;;;16.31;50.74;100419.47;5006067;27;97382;-68
2021/07/06 06:35:49;;;;;;;1999.90;999.90;;;;;;;16.37;51.05;100423.03;5033075;27;97586;-68
2021/07/06 06:38:17;;;;;;;1999.90;999.90;;;;;;;16.41;50.47;100418.53;5016959;27;97343;-69
2021/07/06 06:40:46;;;;;;;1999.90;999.90;;;;;;;16.46;50.65;100419.34;5005382;27;97755;-69
2021/07/06 06:43:14;;;;;;;1999.90;999.90;;;;;;;16.52;50.59;100424.69;5005725;27;97096;-69
2021/07/06 06:45:41;;;;;;;1999.90;999.90;;;;;;;16.58;50.43;100421.97;5002100;27;100281;-69
2021/07/06 06:48:10;;;;;;;1999.90;999.90;;;;;;;16.63;50.51;100412.94;5003719;27;97922;-68
2021/07/06 06:50:38;;;;;;;1999.90;999.90;;;;;;;16.69;50.34;100417.38;5016627;27;97726;-68
2021/07/06 06:53:05;;;;;;;1999.90;999.90;;;;;;;16.73;50.15;100421.81;5005243;27;97634;-68
2021/07/06 06:55:33;;;;;;;1999.90;999.90;;;;;;;16.78;49.96;100415.50;5006256;27;98878;-69
2021/07/06 06:58:02;;;;;;;1999.90;999.90;;;;;;;16.85;50.03;100419.91;5004247;27;99675;-69
2021/07/06 07:00:32;;;;;;;1999.90;999.90;;;;;;;16.90;50.06;100418.09;5012112;27;96844;-69
2021/07/06 07:03:00;;;;;;;1999.90;999.90;;;;;;;16.95;49.84;100413.53;4988209;27;97268;-69
2021/07/06 07:05:29;;;;;;;1999.90;999.90;;;;;;;17.02;49.78;100417.03;4994501;27;97993;-69
2021/07/06 07:07:58;;;;;;;1999.90;999.90;;;;;;;17.09;49.68;100406.19;5003989;27;97826;-69
2021/07/06 07:10:26;;;;;;;1999.90;999.90;;;;;;;17.14;49.79;100403.47;5011320;27;97152;-67
2021/07/06 07:12:56;;;;;;;1999.90;999.90;;;;;;;17.19;49.40;100401.63;5003675;27;97980;-68
2021/07/06 07:15:25;;;;;;;1999.90;999.90;;;;;;;17.25;49.46;100411.41;5016766;27;100883;-69
2021/07/06 07:17:53;;;;;;;1999.90;999.90;;;;;;;17.32;49.29;100410.41;5007140;27;98051;-69
2021/07/06 07:20:20;;;;;;;1999.90;999.90;;;;;;;17.37;49.03;100417.53;5009458;27;96683;-68
2021/07/06 07:22:48;;;;;;;1999.90;999.90;;;;;;;17.42;49.06;100422.91;5008683;27;97590;-68
2021/07/06 07:25:17;;;;;;;1999.90;999.90;;;;;;;17.48;49.04;100409.34;5009024;27;98544;-68
2021/07/06 07:27:45;;;;;;;1999.90;999.90;;;;;;;17.54;48.95;100410.16;4992640;27;97392;-69
2021/07/06 07:30:15;;;;;;;1999.90;999.90;;;;;;;17.82;48.23;100410.69;5004578;27;97452;-68
2021/07/06 07:32:44;;;;;;;1999.90;999.90;;;;;;;17.79;48.60;100414.28;4995560;27;97259;-69
2021/07/06 07:35:13;;;;;;;1999.90;999.90;;;;;;;17.84;48.49;100420.50;5002999;27;97228;-69
2021/07/06 07:37:41;;;;;;;1999.90;999.90;;;;;;;17.86;48.51;100418.69;5005049;27;97308;-70
2021/07/06 07:40:10;;;;;;;1999.90;999.90;;;;;;;17.89;48.43;100426.69;4994018;27;96914;-70
2021/07/06 07:42:38;;;;;;;1999.90;999.90;;;;;;;17.93;48.24;100427.53;5012150;27;97218;-69
2021/07/06 07:45:07;;;;;;;1999.90;999.90;;;;;;;17.94;48.22;100432.94;5006247;27;99355;-69
2021/07/06 07:47:35;;;;;;;1999.90;999.90;;;;;;;17.98;48.28;100407.72;5003504;27;97862;-69
2021/07/06 07:50:06;;;;;;;1999.90;999.90;;;;;;;18.02;48.14;100416.66;5006574;27;97928;-69
2021/07/06 07:52:35;;;;;;;1999.90;999.90;;;;;;;18.08;48.08;100405.81;5004997;27;98030;-69
2021/07/06 07:55:04;;;;;;;1999.90;999.90;;;;;;;18.12;48.08;100409.34;5007529;27;100665;-69
2021/07/06 07:57:32;;;;;;;1999.90;999.90;;;;;;;18.17;47.95;100404.81;5001549;27;99253;-69
2021/07/06 08:00:00;;;;;;;1999.90;999.90;;;;;;;18.23;48.02;100408.28;5004153;27;97186;-68
2021/07/06 08:02:28;;;;;;;1999.90;999.90;;;;;;;18.30;47.92;100406.34;5004339;27;96812;-68
2021/07/06 08:04:56;;;;;;;1999.90;999.90;;;;;;;18.34;47.54;100400.91;5004503;27;97994;-69
2021/07/06 08:07:27;;;;;;;1999.90;999.90;;;;;;;18.38;47.37;100401.75;4987185;27;101706;-70
2021/07/06 08:09:55;;;;;;;1999.90;999.90;;;;;;;18.44;47.48;100402.50;5002136;27;97197;-69
2021/07/06 08:12:22;;;;;;;1999.90;999.90;;;;;;;18.50;47.44;100390.75;5005795;27;97523;-70
2021/07/06 08:14:51;;;;;;;1999.90;999.90;;;;;;;18.57;47.40;100390.59;5003605;27;100381;-69
2021/07/06 08:17:19;;;;;;;1999.90;999.90;;;;;;;18.62;47.06;100391.41;5006320;27;97685;-70
2021/07/06 08:19:49;;;;;;;1999.90;999.90;;;;;;;18.66;46.95;100392.28;5009585;27;97303;-69
2021/07/06 08:22:17;;;;;;;1999.90;999.90;;;;;;;18.70;47.04;100396.69;5006904;27;97746;-71
2021/07/06 08:24:46;;;;;;;1999.90;999.90;;;;;;;18.76;46.85;100396.59;5003971;27;98615;-71
2021/07/06 08:27:13;;;;;;;1999.90;999.90;;;;;;;18.82;47.06;100391.97;5002551;27;100467;-70
2021/07/06 08:29:41;;;;;;;1999.90;999.90;;;;;;;18.90;46.64;100387.31;4997121;28;96914;-70
2021/07/06 08:32:09;;;;;;;1999.90;999.90;;;;;;;18.98;46.70;100376.41;5004872;27;96922;-69
2021/07/06 08:34:37;;;;;;;1999.90;999.90;;;;;;;19.06;46.54;100377.16;5000628;27;100765;-70
2021/07/06 08:37:05;;;;;;;1999.90;999.90;;;;;;;19.13;46.01;100372.50;5005087;27;97662;-69
2021/07/06 08:39:33;;;;;;;1999.90;999.90;;;;;;;19.20;46.02;100369.66;5008369;27;98202;-69
2021/07/06 08:42:02;;;;;;;1999.90;999.90;;;;;;;19.27;45.77;100365.00;4992095;28;97227;-69
2021/07/06 08:44:30;;;;;;;1999.90;999.90;;;;;;;19.36;46.09;100354.03;5007189;27;99283;-70
2021/07/06 08:47:00;;;;;;;1999.90;999.90;;;;;;;19.44;45.94;100352.97;5010168;27;99520;-70
2021/07/06 08:49:28;;;;;;;1999.90;999.90;;;;;;;19.47;45.82;100358.31;4990202;28;97500;-70
2021/07/06 08:51:55;;;;;;;1999.90;999.90;;;;;;;19.54;45.18;100353.63;5005984;27;97383;-68
2021/07/06 08:54:23;;;;;;;1999.90;999.90;;;;;;;19.59;45.45;100341.81;5010085;27;99350;-69
2021/07/06 08:56:51;;;;;;;1999.90;999.90;;;;;;;19.64;45.35;100345.31;5003395;27;100763;-70
2021/07/06 08:59:33;;;;;;;1999.90;999.90;;;;;;;19.71;44.88;100346.94;5004070;27;97141;-69
2021/07/06 09:02:00;;;;;;;1999.90;999.90;;;;;;;19.76;44.75;100354.94;4994128;28;97076;-69
2021/07/06 09:04:42;;;;;;;1999.90;999.90;;;;;;;19.83;44.79;100357.44;5006553;27;97993;-70
2021/07/06 09:07:10;;;;;;;1999.90;999.90;;;;;;;19.89;44.84;100361.81;5006492;27;100503;-69
2021/07/06 09:09:38;;;;;;;1999.90;999.90;;;;;;;19.96;44.81;100364.38;5007601;27;97823;-69
2021/07/06 09:12:07;;;;;;;1999.90;999.90;;;;;;;20.03;44.78;100365.09;5010792;27;97810;-70
2021/07/06 09:14:40;;;;;;;1999.90;999.90;;;;;;;20.09;44.26;100364.06;5003852;27;99321;-70
2021/07/06 09:17:10;;;;;;;1999.90;999.90;;;;;;;20.13;44.31;100365.78;5008831;27;97601;-69
2021/07/06 09:19:41;;;;;;;1999.90;999.90;;;;;;;20.18;44.40;100370.13;5009605;27;96943;-68
2021/07/06 09:22:11;;;;;;;1999.90;999.90;;;;;;;20.22;43.98;100368.25;5009217;27;96772;-70
2021/07/06 09:24:39;;;;;;;1999.90;999.90;;;;;;;20.30;43.78;100379.78;5005907;27;98025;-70
2021/07/06 09:27:25;;;;;;;1224.88;911.05;;;;;;;20.29;43.41;100370.75;5010936;27;98039;-69
2021/07/06 09:30:16;;;;;;;916.60;840.45;;;;;;;20.37;43.28;100368.75;5003371;28;97224;-70
2021/07/06 09:32:47;;;;;;;922.15;849.53;;;;;;;20.40;43.65;100363.28;5018451;27;96910;-69
2021/07/06 09:35:22;;;;;;;1194.28;887.03;;;;;;;20.45;43.41;100361.31;4991672;27;101153;-69
2021/07/06 09:37:52;;;;;;;952.85;877.55;;;;;;;20.49;43.46;100348.63;5000597;28;100092;-69
2021/07/06 09:40:29;;;;;;;970.30;889.72;;;;;;;20.62;43.02;100345.59;5012817;27;98555;-68
2021/07/06 09:43:17;;;;;;;1999.90;999.90;;;;;;;20.80;40.80;100349.59;4990229;28;97357;-70
2021/07/06 09:45:52;;;;;;;1999.90;999.90;;;;;;;20.78;41.86;100346.94;4995459;27;96974;-71
2021/07/06 09:48:20;;;;;;;1999.90;999.90;;;;;;;20.86;41.88;100328.69;4986508;27;98739;-71
2021/07/06 09:50:49;;;;;;;1999.90;999.90;;;;;;;20.91;42.05;100326.75;5008576;27;97056;-69
2021/07/06 09:53:27;;;;;;;1999.90;999.90;;;;;;;20.95;42.04;100314.91;5006075;27;97010;-69
2021/07/06 09:55:55;;;;;;;1238.35;918.90;;;;;;;21.02;41.95;100310.19;5007935;27;97845;-69
2021/07/06 09:58:24;;;;;;;989.97;903.45;;;;;;;21.05;42.24;100311.94;5006153;27;100170;-71
2021/07/06 10:00:54;;;;;;;1000.17;912.47;;;;;;;21.09;41.96;100308.22;4989453;28;97316;-70
2021/07/06 10:03:22;;;;;;;982.88;898.97;;;;;;;21.19;41.74;100305.22;5003583;28;96986;-71
2021/07/06 10:05:51;;;;;;;989.45;904.03;;;;;;;21.16;41.76;100316.09;5002280;28;98003;-71
2021/07/06 10:08:19;;;;;;;954.50;876.03;;;;;;;21.19;41.67;100316.03;5002692;27;99895;-71
2021/07/06 10:10:47;;;;;;;848.88;788.80;;;;;;;21.23;41.18;100323.13;4999255;28;97772;-70
2021/07/06 10:13:15;;;;;;;801.30;748.67;;;;;;;21.27;41.15;100332.06;4995713;28;98112;-70
2021/07/06 10:15:44;;;;;;;726.60;682.85;;;;;;;21.35;41.00;100330.88;4988252;28;97347;-70
2021/07/06 10:18:13;;;;;;;803.65;750.15;;;;;;;21.43;41.00;100327.94;4996415;28;97357;-69
2021/07/06 10:20:41;;;;;;;738.03;693.10;;;;;;;21.48;40.58;100316.03;4989909;28;97064;-70
2021/07/06 10:23:09;;;;;;;684.25;645.17;;;;;;;21.53;40.45;100327.59;4998629;28;98176;-71
2021/07/06 10:25:37;;;;;;;621.13;590.05;;;;;;;21.58;40.05;100325.63;5017441;27;99347;-71
2021/07/06 10:28:07;;;;;;;582.85;555.35;;;;;;;21.63;40.00;100318.28;4988798;28;100965;-69
2021/07/06 10:30:41;;;;;;;626.63;594.50;;;;;;;21.70;39.45;100314.47;5003501;27;97516;-70
2021/07/06 10:33:15;;;;;;;644.83;611.35;;;;;;;21.77;39.69;100307.00;5003314;27;97066;-71
2021/07/06 10:35:48;;;;;;;617.13;586.00;;;;;;;21.86;39.20;100315.75;4989632;27;100599;-71
2021/07/06 10:38:41;;;;;;;599.97;570.88;;;;;;;21.93;38.26;100311.00;5006018;27;96892;-71
2021/07/06 10:41:14;;;;;;;587.08;559.05;;;;;;;22.03;39.26;100325.13;5007406;27;97880;-71
2021/07/06 10:43:53;;;;;;;581.10;553.60;;;;;;;22.07;37.70;100311.44;5002999;28;97838;-71
2021/07/06 10:46:43;;;;;;;597.35;568.67;;;;;;;22.16;37.82;100321.97;5016379;27;98064;-70
2021/07/06 10:49:15;;;;;;;598.65;569.67;;;;;;;22.24;38.56;100329.81;5010879;27;99059;-70
2021/07/06 10:51:51;;;;;;;580.80;553.10;;;;;;;22.28;37.98;100328.81;5003480;27;97222;-69
2021/07/06 10:54:26;;;;;;;605.08;575.17;;;;;;;22.34;37.46;100321.38;5008528;27;97719;-71
2021/07/06 10:56:56;;;;;;;584.83;556.67;;;;;;;22.35;37.79;100331.25;5003193;27;96901;-70